createdAt,value
2022-11-10T00:02:54.571Z,100380.26
2022-11-10T00:08:16.616Z,100383.84
2022-11-10T00:14:01.279Z,100381.59
2022-11-10T00:19:23.733Z,100386.30
2022-11-10T00:24:45.924Z,100387.40
2022-11-10T00:30:08.527Z,100389.77
2022-11-10T00:35:30.622Z,100391.69
2022-11-10T00:40:52.719Z,100401.20
2022-11-10T00:46:15.213Z,100402.45
2022-11-10T00:51:38.234Z,100403.95
2022-11-10T00:57:00.564Z,100406.30
2022-11-10T01:02:22.828Z,100403.14
2022-11-10T01:07:45.151Z,100409.48
2022-11-10T01:13:07.005Z,100410.61
2022-11-10T01:18:29.152Z,100421.52
2022-11-10T01:23:51.420Z,100422.73
2022-11-10T01:29:13.796Z,100424.67
2022-11-10T01:34:35.987Z,100423.39
2022-11-10T01:39:58.308Z,100422.76
2022-11-10T01:45:23.458Z,100424.16
2022-11-10T01:50:47.445Z,100428.30
2022-11-10T01:56:10.781Z,100431.95
2022-11-10T02:01:32.797Z,100436.60
2022-11-10T02:06:55.383Z,100437.77
2022-11-10T02:12:37.127Z,100440.50
2022-11-10T02:17:59.083Z,100450.54
2022-11-10T02:23:37.203Z,100450.03
2022-11-10T02:28:59.463Z,100450.35
2022-11-10T02:34:21.596Z,100459.48
2022-11-10T02:39:43.563Z,100465.58
2022-11-10T02:45:05.939Z,100464.20
2022-11-10T02:50:28.195Z,100465.77
2022-11-10T02:55:50.297Z,100463.77
2022-11-10T03:01:12.324Z,100469.89
2022-11-10T03:06:41.434Z,100485.98
2022-11-10T03:12:03.720Z,100487.90
2022-11-10T03:17:26.156Z,100496.56
2022-11-10T03:22:48.093Z,100509.77
2022-11-10T03:28:11.350Z,100506.52
2022-11-10T03:33:33.560Z,100508.57
2022-11-10T03:38:55.706Z,100532.42
2022-11-10T03:44:17.632Z,100538.14
2022-11-10T03:49:39.806Z,100536.17
2022-11-10T03:55:03.550Z,100540.84
2022-11-10T04:00:25.912Z,100536.96
2022-11-10T04:06:06.600Z,100539.06
2022-11-10T04:11:49.074Z,100534.73
2022-11-10T04:17:11.273Z,100530.78
2022-11-10T04:22:52.060Z,100539.15
2022-11-10T04:28:14.391Z,100538.48
2022-11-10T04:33:40.060Z,100534.49
2022-11-10T04:39:06.319Z,100538.05
2022-11-10T04:44:30.813Z,100553.21
2022-11-10T04:49:53.579Z,100562.56
2022-11-10T04:55:16.529Z,100570.39
2022-11-10T05:00:39.626Z,100579.95
2022-11-10T05:06:01.621Z,100593.08
2022-11-10T05:11:23.800Z,100592.30
2022-11-10T05:16:46.138Z,100592.48
2022-11-10T05:22:08.414Z,100599.38
2022-11-10T05:27:30.385Z,100599.33
2022-11-10T05:32:52.376Z,100617.62
2022-11-10T05:38:14.478Z,100623.12
2022-11-10T05:43:36.335Z,100629.52
2022-11-10T05:48:58.480Z,100642.73
2022-11-10T05:54:21.004Z,100654.16
2022-11-10T05:59:43.098Z,100666.33
2022-11-10T06:05:08.613Z,100674.81
2022-11-10T06:10:31.109Z,100680.79
2022-11-10T06:15:53.259Z,100689.59
2022-11-10T06:21:15.704Z,100704.28
2022-11-10T06:26:42.616Z,100719.55
2022-11-10T06:32:05.334Z,100733.09
2022-11-10T06:37:27.697Z,100743.39
2022-11-10T06:42:53.338Z,100750.83
2022-11-10T06:48:15.610Z,100764.70
2022-11-10T06:53:37.983Z,100777.17
2022-11-10T06:59:00.329Z,100784.68
2022-11-10T07:04:22.646Z,100792.76
2022-11-10T07:09:45.015Z,100799.98
2022-11-10T07:15:07.868Z,100810.74
2022-11-10T07:20:35.103Z,100816.53
2022-11-10T07:25:59.733Z,100826.45
2022-11-10T07:31:22.019Z,100835.33
2022-11-10T07:36:44.293Z,100846.36
2022-11-10T07:42:06.622Z,100852.45
2022-11-10T07:47:28.894Z,100857.42
2022-11-10T07:52:50.946Z,100865.14
2022-11-10T07:58:15.330Z,100870.41
2022-11-10T08:03:37.797Z,100883.89
2022-11-10T08:08:59.726Z,100889.86
2022-11-10T08:14:21.935Z,100898.88
2022-11-10T08:19:44.567Z,100904.05
2022-11-10T08:25:07.077Z,100907.05
2022-11-10T08:30:30.019Z,100914.89
2022-11-10T08:35:52.671Z,100919.02
2022-11-10T08:41:16.166Z,100927.23
2022-11-10T08:46:38.507Z,100936.02
2022-11-10T08:52:01.385Z,100944.38
2022-11-10T08:57:23.524Z,100951.89
2022-11-10T09:02:45.976Z,100967.82
2022-11-10T09:08:08.280Z,100970.89
2022-11-10T09:13:31.243Z,100976.50
2022-11-10T09:18:53.663Z,100985.64
2022-11-10T09:24:15.708Z,100994.86
2022-11-10T09:29:38.176Z,101003.35
2022-11-10T09:35:02.393Z,101007.07
2022-11-10T09:40:32.377Z,101014.58
2022-11-10T09:45:57.010Z,101017.73
2022-11-10T09:51:25.548Z,101023.05
2022-11-10T09:56:47.615Z,101029.13
2022-11-10T10:02:21.421Z,101027.27
2022-11-10T10:08:02.164Z,101037.41
2022-11-10T10:13:55.624Z,101041.60
2022-11-10T10:19:21.449Z,101046.92
2022-11-10T10:24:43.669Z,101048.98
2022-11-10T10:30:17.102Z,101043.98
2022-11-10T10:35:41.999Z,101054.80
2022-11-10T10:41:17.181Z,101051.06
2022-11-10T10:46:46.090Z,101053.55
2022-11-10T10:52:13.759Z,101048.50
2022-11-10T10:57:35.753Z,101049.30
2022-11-10T11:03:07.065Z,101057.59
2022-11-10T11:08:29.598Z,101062.98
2022-11-10T11:13:52.076Z,101067.98
2022-11-10T11:19:14.541Z,101068.06
2022-11-10T11:25:00.423Z,101071.21
2022-11-10T11:30:25.990Z,101072.88
2022-11-10T11:36:23.158Z,101073.58
2022-11-10T11:41:57.216Z,101071.61
2022-11-10T11:47:58.559Z,101069.27
2022-11-10T11:53:37.906Z,101070.17
2022-11-10T11:59:58.109Z,101078.23
2022-11-10T12:06:03.453Z,101078.27
2022-11-10T12:11:44.688Z,101087.36
2022-11-10T12:17:20.512Z,101088.91
2022-11-10T12:22:53.863Z,101086.50
2022-11-10T12:28:25.529Z,101089.89
2022-11-10T12:33:52.160Z,101094.11
2022-11-10T12:39:38.923Z,101104.15
2022-11-10T12:45:05.402Z,101112.54
2022-11-10T12:50:54.984Z,101120.41
2022-11-10T12:56:32.067Z,101132.66
2022-11-10T13:02:22.421Z,101128.73
2022-11-10T13:07:48.174Z,101131.92
2022-11-10T13:13:15.521Z,101134.94
2022-11-10T13:18:37.564Z,101142.74
2022-11-10T13:24:02.988Z,101150.63
2022-11-10T13:29:58.060Z,101159.46
2022-11-10T13:35:29.547Z,101166.83
2022-11-10T13:40:55.421Z,101174.56
2022-11-10T13:46:18.210Z,101185.71
2022-11-10T13:51:51.754Z,101184.74
2022-11-10T13:57:21.255Z,101193.28
2022-11-10T14:03:02.665Z,101201.84
2022-11-10T14:08:29.782Z,101210.14
2022-11-10T14:14:03.590Z,101210.87
2022-11-10T14:19:38.937Z,101218.54
2022-11-10T14:25:19.945Z,101222.80
2022-11-10T14:30:42.091Z,101235.42
2022-11-10T14:36:06.655Z,101237.41
2022-11-10T14:41:48.628Z,101248.66
2022-11-10T14:47:31.481Z,101261.96
2022-11-10T14:53:22.545Z,101261.31
2022-11-10T14:59:01.958Z,101272.81
2022-11-10T15:04:30.449Z,101278.55
2022-11-10T15:10:16.128Z,101290.29
2022-11-10T15:15:44.168Z,101299.68
2022-11-10T15:21:11.195Z,101299.80
2022-11-10T15:26:53.438Z,101308.48
2022-11-10T15:32:22.218Z,101315.27
2022-11-10T15:38:21.246Z,101331.17
2022-11-10T15:43:48.138Z,101333.87
2022-11-10T15:49:38.270Z,101344.95
2022-11-10T15:55:00.597Z,101355.30
2022-11-10T16:00:22.904Z,101361.25
2022-11-10T16:05:45.777Z,101365.32
2022-11-10T16:11:28.322Z,101373.32
2022-11-10T16:16:50.791Z,101392.92
2022-11-10T16:22:13.747Z,101413.36
2022-11-10T16:27:36.574Z,101428.17
2022-11-10T16:33:07.121Z,101436.63
2022-11-10T16:38:45.128Z,101447.85
2022-11-10T16:44:12.792Z,101458.65
2022-11-10T16:49:38.109Z,101462.59
2022-11-10T16:55:07.881Z,101466.91
2022-11-10T17:00:33.932Z,101473.66
2022-11-10T17:05:57.389Z,101483.20
2022-11-10T17:11:19.553Z,101483.31
2022-11-10T17:16:50.300Z,101489.79
2022-11-10T17:22:22.300Z,101487.86
2022-11-10T17:27:49.259Z,101496.72
2022-11-10T17:33:18.844Z,101490.23
2022-11-10T17:38:41.416Z,101494.06
2022-11-10T17:44:05.910Z,101491.80
2022-11-10T17:49:38.868Z,101492.27
2022-11-10T17:55:10.751Z,101476.83
2022-11-10T18:00:41.976Z,101477.42
2022-11-10T18:06:12.092Z,101484.20
2022-11-10T18:11:34.060Z,101491.52
2022-11-10T18:16:58.735Z,101496.95
2022-11-10T18:22:26.023Z,101497.62
2022-11-10T18:27:57.384Z,101500.74
2022-11-10T18:33:30.113Z,101514.20
2022-11-10T18:38:56.534Z,101516.48
2022-11-10T18:44:21.163Z,101517.07
2022-11-10T18:49:46.651Z,101526.39
2022-11-10T18:55:10.124Z,101527.23
2022-11-10T19:00:37.679Z,101539.61
2022-11-10T19:06:00.506Z,101541.88
2022-11-10T19:11:22.946Z,101546.96
2022-11-10T19:16:45.315Z,101551.42
2022-11-10T19:22:09.932Z,101558.87
2022-11-10T19:27:33.139Z,101557.02
2022-11-10T19:32:55.570Z,101563.27
2022-11-10T19:38:18.030Z,101572.02
2022-11-10T19:43:47.768Z,101572.11
2022-11-10T19:49:10.298Z,101571.57
2022-11-10T19:54:32.950Z,101580.84
2022-11-10T19:59:54.785Z,101594.07
2022-11-10T20:05:34.518Z,101603.41
2022-11-10T20:11:23.186Z,101600.54
2022-11-10T20:16:48.609Z,101596.99
2022-11-10T20:22:17.853Z,101604.16
2022-11-10T20:27:40.225Z,101614.72
2022-11-10T20:33:08.112Z,101610.06
2022-11-10T20:38:31.203Z,101607.77
2022-11-10T20:43:54.266Z,101596.55
2022-11-10T20:49:18.083Z,101599.73
2022-11-10T20:54:48.182Z,101605.48
2022-11-10T21:00:12.427Z,101614.41
2022-11-10T21:05:37.902Z,101607.41
2022-11-10T21:11:06.397Z,101612.11
2022-11-10T21:16:31.115Z,101614.18
2022-11-10T21:21:54.907Z,101625.79
2022-11-10T21:27:17.014Z,101620.30
2022-11-10T21:32:48.488Z,101619.92
2022-11-10T21:38:14.524Z,101612.48
2022-11-10T21:43:39.858Z,101611.54
2022-11-10T21:49:07.563Z,101615.38
2022-11-10T21:54:31.466Z,101617.14
2022-11-10T21:59:57.245Z,101614.28
2022-11-10T22:05:19.366Z,101607.05
2022-11-10T22:11:02.082Z,101613.42
2022-11-10T22:16:48.712Z,101622.98
2022-11-10T22:22:20.230Z,101629.04
2022-11-10T22:27:49.237Z,101630.04
2022-11-10T22:33:40.516Z,101641.53
2022-11-10T22:39:22.806Z,101653.84
2022-11-10T22:44:59.038Z,101660.72
2022-11-10T22:50:44.841Z,101661.89
2022-11-10T23:02:41.890Z,101673.79
2022-11-10T23:08:17.021Z,101685.23
2022-11-10T23:13:42.774Z,101700.88
2022-11-10T23:19:05.795Z,101711.90
2022-11-10T23:24:27.813Z,101713.60
2022-11-10T23:29:56.833Z,101720.52
2022-11-10T23:35:19.134Z,101721.73
2022-11-10T23:40:45.570Z,101725.04
2022-11-10T23:46:12.468Z,101716.80
2022-11-10T23:51:34.499Z,101723.23
2022-11-10T23:56:57.321Z,101723.50
